sensor_id;sensor_type;location;lat;lon;timestamp;temperature;humidity
3756;DHT22;1893;52.526;13.360;2023-04-01T00:01:12;9.30;99.90
3756;DHT22;1893;52.526;13.360;2023-04-01T00:03:39;9.30;99.90
3756;DHT22;1893;52.526;13.360;2023-04-01T00:06:05;9.30;99.90
3756;DHT22;1893;52.526;13.360;2023-04-01T00:08:31;9.30;99.90
3756;DHT22;1893;52.526;13.360;2023-04-01T00:10:57;9.30;99.90
3756;DHT22;1893;52.526;13.360;2023-04-01T00:13:24;9.30;99.90
3756;DHT22;1893;52.526;13.360;2023-04-01T00:15:51;9.30;99.90
3756;DHT22;1893;52.526;13.360;2023-04-01T00:18:16;9.40;99.90
3756;DHT22;1893;52.526;13.360;2023-04-01T00:20:46;9.40;99.90
3756;DHT22;1893;52.526;13.360;2023-04-01T00:23:13;9.30;99.90
3756;DHT22;1893;52.526;13.360;2023-04-01T00:25:39;9.30;99.90
3756;DHT22;1893;52.526;13.360;2023-04-01T00:28:05;9.40;99.90
3756;DHT22;1893;52.526;13.360;2023-04-01T00:30:31;9.40;99.90
3756;DHT22;1893;52.526;13.360;2023-04-01T00:32:57;9.40;99.90
3756;DHT22;1893;52.526;13.360;2023-04-01T00:35:22;9.40;99.90
3756;DHT22;1893;52.526;13.360;2023-04-01T00:37:48;9.40;99.90
3756;DHT22;1893;52.526;13.360;2023-04-01T00:42:52;9.40;99.90
3756;DHT22;1893;52.526;13.360;2023-04-01T00:45:37;9.40;99.90
3756;DHT22;1893;52.526;13.360;2023-04-01T00:48:10;9.40;99.90
3756;DHT22;1893;52.526;13.360;2023-04-01T00:50:39;9.40;99.90
3756;DHT22;1893;52.526;13.360;2023-04-01T00:53:07;9.40;99.90
3756;DHT22;1893;52.526;13.360;2023-04-01T00:55:35;9.40;99.90
3756;DHT22;1893;52.526;13.360;2023-04-01T00:58:05;9.40;99.90
3756;DHT22;1893;52.526;13.360;2023-04-01T01:00:34;9.40;99.90
3756;DHT22;1893;52.526;13.360;2023-04-01T01:03:01;9.40;99.90
3756;DHT22;1893;52.526;13.360;2023-04-01T01:05:49;9.40;99.90
3756;DHT22;1893;52.526;13.360;2023-04-01T01:11:24;9.50;99.90
3756;DHT22;1893;52.526;13.360;2023-04-01T01:14:07;9.50;99.90
3756;DHT22;1893;52.526;13.360;2023-04-01T01:16:40;9.50;99.90
3756;DHT22;1893;52.526;13.360;2023-04-01T01:27:18;9.50;99.90
3756;DHT22;1893;52.526;13.360;2023-04-01T01:30:06;9.50;99.90
3756;DHT22;1893;52.526;13.360;2023-04-01T01:35:33;9.40;99.90
3756;DHT22;1893;52.526;13.360;2023-04-01T01:38:08;9.50;99.90
3756;DHT22;1893;52.526;13.360;2023-04-01T01:40:36;9.40;99.90
3756;DHT22;1893;52.526;13.360;2023-04-01T01:43:06;9.40;99.90
3756;DHT22;1893;52.526;13.360;2023-04-01T01:45:36;9.40;99.90
3756;DHT22;1893;52.526;13.360;2023-04-01T01:48:05;9.40;99.90
3756;DHT22;1893;52.526;13.360;2023-04-01T01:50:33;9.40;99.90
3756;DHT22;1893;52.526;13.360;2023-04-01T01:53:07;9.40;99.90
3756;DHT22;1893;52.526;13.360;2023-04-01T01:55:35;9.40;99.90
3756;DHT22;1893;52.526;13.360;2023-04-01T01:58:33;9.40;99.90
3756;DHT22;1893;52.526;13.360;2023-04-01T02:01:03;9.40;99.90
3756;DHT22;1893;52.526;13.360;2023-04-01T02:03:34;9.40;99.90
3756;DHT22;1893;52.526;13.360;2023-04-01T02:06:03;9.40;99.90
3756;DHT22;1893;52.526;13.360;2023-04-01T02:08:36;9.40;99.90
3756;DHT22;1893;52.526;13.360;2023-04-01T02:11:10;9.40;99.90
3756;DHT22;1893;52.526;13.360;2023-04-01T02:14:31;9.40;99.90
3756;DHT22;1893;52.526;13.360;2023-04-01T02:19:09;9.40;99.90
3756;DHT22;1893;52.526;13.360;2023-04-01T02:21:36;9.40;99.90
3756;DHT22;1893;52.526;13.360;2023-04-01T02:24:07;9.40;99.90
3756;DHT22;1893;52.526;13.360;2023-04-01T02:26:34;9.40;99.90
3756;DHT22;1893;52.526;13.360;2023-04-01T02:29:01;9.40;99.90
3756;DHT22;1893;52.526;13.360;2023-04-01T02:31:27;9.40;99.90
3756;DHT22;1893;52.526;13.360;2023-04-01T02:33:53;9.40;99.90
3756;DHT22;1893;52.526;13.360;2023-04-01T02:36:19;9.40;99.90
3756;DHT22;1893;52.526;13.360;2023-04-01T02:38:46;9.30;99.90
3756;DHT22;1893;52.526;13.360;2023-04-01T02:41:13;9.30;99.90
3756;DHT22;1893;52.526;13.360;2023-04-01T02:43:39;9.40;99.90
3756;DHT22;1893;52.526;13.360;2023-04-01T02:46:05;9.40;99.90
3756;DHT22;1893;52.526;13.360;2023-04-01T02:48:30;9.40;99.90
3756;DHT22;1893;52.526;13.360;2023-04-01T02:50:56;9.40;99.90
3756;DHT22;1893;52.526;13.360;2023-04-01T02:53:22;9.40;99.90
3756;DHT22;1893;52.526;13.360;2023-04-01T02:55:47;9.40;99.90
3756;DHT22;1893;52.526;13.360;2023-04-01T02:58:16;9.30;99.90
3756;DHT22;1893;52.526;13.360;2023-04-01T03:00:42;9.40;99.90
3756;DHT22;1893;52.526;13.360;2023-04-01T03:03:08;9.30;99.90
3756;DHT22;1893;52.526;13.360;2023-04-01T03:05:33;9.40;99.90
3756;DHT22;1893;52.526;13.360;2023-04-01T03:07:59;9.30;99.90
3756;DHT22;1893;52.526;13.360;2023-04-01T03:10:25;9.30;99.90
3756;DHT22;1893;52.526;13.360;2023-04-01T03:12:50;9.40;99.90
3756;DHT22;1893;52.526;13.360;2023-04-01T03:15:16;9.40;99.90
3756;DHT22;1893;52.526;13.360;2023-04-01T03:17:42;9.40;99.90
3756;DHT22;1893;52.526;13.360;2023-04-01T03:20:09;9.30;99.90
3756;DHT22;1893;52.526;13.360;2023-04-01T03:22:36;9.30;99.90
3756;DHT22;1893;52.526;13.360;2023-04-01T03:25:03;9.30;99.90
3756;DHT22;1893;52.526;13.360;2023-04-01T03:27:29;9.30;99.90
3756;DHT22;1893;52.526;13.360;2023-04-01T03:29:55;9.30;99.90
3756;DHT22;1893;52.526;13.360;2023-04-01T03:32:20;9.30;99.90
3756;DHT22;1893;52.526;13.360;2023-04-01T03:34:46;9.30;99.90
3756;DHT22;1893;52.526;13.360;2023-04-01T03:37:11;9.30;99.90
3756;DHT22;1893;52.526;13.360;2023-04-01T03:39:37;9.30;99.90
3756;DHT22;1893;52.526;13.360;2023-04-01T03:42:03;9.30;99.90
3756;DHT22;1893;52.526;13.360;2023-04-01T03:44:33;9.30;99.90
3756;DHT22;1893;52.526;13.360;2023-04-01T03:46:59;9.30;99.90
3756;DHT22;1893;52.526;13.360;2023-04-01T03:49:25;9.30;99.90
3756;DHT22;1893;52.526;13.360;2023-04-01T03:51:51;9.30;99.90
3756;DHT22;1893;52.526;13.360;2023-04-01T03:54:17;9.40;99.90
3756;DHT22;1893;52.526;13.360;2023-04-01T03:56:45;9.40;99.90
3756;DHT22;1893;52.526;13.360;2023-04-01T03:59:11;9.40;99.90
3756;DHT22;1893;52.526;13.360;2023-04-01T04:01:36;9.40;99.90
3756;DHT22;1893;52.526;13.360;2023-04-01T04:04:02;9.40;99.90
3756;DHT22;1893;52.526;13.360;2023-04-01T04:06:28;9.40;99.90
3756;DHT22;1893;52.526;13.360;2023-04-01T04:08:54;9.40;99.90
3756;DHT22;1893;52.526;13.360;2023-04-01T04:11:20;9.40;99.90
3756;DHT22;1893;52.526;13.360;2023-04-01T04:13:46;9.40;99.90
3756;DHT22;1893;52.526;13.360;2023-04-01T04:16:16;9.40;99.90
3756;DHT22;1893;52.526;13.360;2023-04-01T04:18:42;9.40;99.90
3756;DHT22;1893;52.526;13.360;2023-04-01T04:21:12;9.40;99.90
3756;DHT22;1893;52.526;13.360;2023-04-01T04:23:37;9.50;99.90
3756;DHT22;1893;52.526;13.360;2023-04-01T04:26:05;9.50;99.90
3756;DHT22;1893;52.526;13.360;2023-04-01T04:28:32;9.40;99.90
3756;DHT22;1893;52.526;13.360;2023-04-01T04:30:58;9.50;99.90
3756;DHT22;1893;52.526;13.360;2023-04-01T04:33:24;9.40;99.90
3756;DHT22;1893;52.526;13.360;2023-04-01T04:35:50;9.40;99.90
3756;DHT22;1893;52.526;13.360;2023-04-01T04:38:17;9.40;99.90
3756;DHT22;1893;52.526;13.360;2023-04-01T04:40:43;9.40;99.90
3756;DHT22;1893;52.526;13.360;2023-04-01T04:43:14;9.40;99.90
3756;DHT22;1893;52.526;13.360;2023-04-01T04:45:40;9.40;99.90
3756;DHT22;1893;52.526;13.360;2023-04-01T04:48:08;9.40;99.90
3756;DHT22;1893;52.526;13.360;2023-04-01T04:50:34;9.40;99.90
3756;DHT22;1893;52.526;13.360;2023-04-01T04:53:00;9.40;99.90
3756;DHT22;1893;52.526;13.360;2023-04-01T04:55:26;9.50;99.90
3756;DHT22;1893;52.526;13.360;2023-04-01T04:57:51;9.50;99.90
3756;DHT22;1893;52.526;13.360;2023-04-01T05:00:17;9.50;99.90
3756;DHT22;1893;52.526;13.360;2023-04-01T05:02:43;9.50;99.90
3756;DHT22;1893;52.526;13.360;2023-04-01T05:05:09;9.50;99.90
3756;DHT22;1893;52.526;13.360;2023-04-01T05:07:35;9.50;99.90
3756;DHT22;1893;52.526;13.360;2023-04-01T05:10:01;9.50;99.90
3756;DHT22;1893;52.526;13.360;2023-04-01T05:12:27;9.50;99.90
3756;DHT22;1893;52.526;13.360;2023-04-01T05:14:52;9.50;99.90
3756;DHT22;1893;52.526;13.360;2023-04-01T05:17:18;9.50;99.90
3756;DHT22;1893;52.526;13.360;2023-04-01T05:19:44;9.50;99.90
3756;DHT22;1893;52.526;13.360;2023-04-01T05:22:09;9.50;99.90
3756;DHT22;1893;52.526;13.360;2023-04-01T05:24:35;9.50;99.90
3756;DHT22;1893;52.526;13.360;2023-04-01T05:27:00;9.50;99.90
3756;DHT22;1893;52.526;13.360;2023-04-01T05:29:26;9.50;99.90
3756;DHT22;1893;52.526;13.360;2023-04-01T05:31:52;9.50;99.90
3756;DHT22;1893;52.526;13.360;2023-04-01T05:34:18;9.60;99.90
3756;DHT22;1893;52.526;13.360;2023-04-01T05:36:44;9.50;99.90
3756;DHT22;1893;52.526;13.360;2023-04-01T05:39:10;9.50;99.90
3756;DHT22;1893;52.526;13.360;2023-04-01T05:41:36;9.70;99.90
3756;DHT22;1893;52.526;13.360;2023-04-01T05:44:02;9.60;99.90
3756;DHT22;1893;52.526;13.360;2023-04-01T05:46:28;9.60;99.90
3756;DHT22;1893;52.526;13.360;2023-04-01T05:48:54;9.60;99.90
3756;DHT22;1893;52.526;13.360;2023-04-01T05:51:20;9.60;99.90
3756;DHT22;1893;52.526;13.360;2023-04-01T05:53:46;9.70;99.90
3756;DHT22;1893;52.526;13.360;2023-04-01T05:56:12;9.60;99.90
3756;DHT22;1893;52.526;13.360;2023-04-01T05:58:38;9.60;99.90
3756;DHT22;1893;52.526;13.360;2023-04-01T06:01:14;9.70;99.90
3756;DHT22;1893;52.526;13.360;2023-04-01T06:03:39;9.70;99.90
3756;DHT22;1893;52.526;13.360;2023-04-01T06:06:13;9.70;99.90
3756;DHT22;1893;52.526;13.360;2023-04-01T06:08:40;9.70;99.90
3756;DHT22;1893;52.526;13.360;2023-04-01T06:14:14;9.70;99.90
3756;DHT22;1893;52.526;13.360;2023-04-01T06:24:42;9.80;99.90
3756;DHT22;1893;52.526;13.360;2023-04-01T06:27:33;9.80;99.90
3756;DHT22;1893;52.526;13.360;2023-04-01T06:40:55;9.70;99.90
3756;DHT22;1893;52.526;13.360;2023-04-01T06:51:45;9.70;99.90
3756;DHT22;1893;52.526;13.360;2023-04-01T06:57:52;9.80;99.90
3756;DHT22;1893;52.526;13.360;2023-04-01T07:00:27;9.80;99.90
3756;DHT22;1893;52.526;13.360;2023-04-01T07:03:20;9.80;99.90
3756;DHT22;1893;52.526;13.360;2023-04-01T07:05:46;9.80;99.90
3756;DHT22;1893;52.526;13.360;2023-04-01T07:08:19;9.80;99.90
3756;DHT22;1893;52.526;13.360;2023-04-01T07:13:25;9.90;99.90
3756;DHT22;1893;52.526;13.360;2023-04-01T07:21:25;10.00;99.90
3756;DHT22;1893;52.526;13.360;2023-04-01T07:23:53;10.10;99.90
3756;DHT22;1893;52.526;13.360;2023-04-01T07:26:22;10.20;99.90
3756;DHT22;1893;52.526;13.360;2023-04-01T07:28:49;10.10;99.90
3756;DHT22;1893;52.526;13.360;2023-04-01T07:31:25;10.20;99.90
3756;DHT22;1893;52.526;13.360;2023-04-01T07:34:07;10.30;99.90
3756;DHT22;1893;52.526;13.360;2023-04-01T07:39:23;10.20;99.90
3756;DHT22;1893;52.526;13.360;2023-04-01T07:45:05;10.30;99.90
3756;DHT22;1893;52.526;13.360;2023-04-01T07:50:32;10.50;99.90
3756;DHT22;1893;52.526;13.360;2023-04-01T07:55:50;10.50;99.90
3756;DHT22;1893;52.526;13.360;2023-04-01T08:04:09;10.80;99.90
3756;DHT22;1893;52.526;13.360;2023-04-01T08:12:35;11.00;99.90
3756;DHT22;1893;52.526;13.360;2023-04-01T08:17:48;11.00;99.90
3756;DHT22;1893;52.526;13.360;2023-04-01T08:23:15;11.00;99.90
3756;DHT22;1893;52.526;13.360;2023-04-01T08:25:50;11.00;99.90
3756;DHT22;1893;52.526;13.360;2023-04-01T08:28:27;10.90;99.90
3756;DHT22;1893;52.526;13.360;2023-04-01T08:33:31;10.60;99.90
3756;DHT22;1893;52.526;13.360;2023-04-01T08:36:17;10.50;99.90
3756;DHT22;1893;52.526;13.360;2023-04-01T08:46:54;10.30;99.90
3756;DHT22;1893;52.526;13.360;2023-04-01T08:49:29;10.10;99.90
3756;DHT22;1893;52.526;13.360;2023-04-01T09:26:27;10.20;99.90
3756;DHT22;1893;52.526;13.360;2023-04-01T09:39:37;9.70;99.90
3756;DHT22;1893;52.526;13.360;2023-04-01T09:42:21;9.70;99.90
3756;DHT22;1893;52.526;13.360;2023-04-01T09:44:58;9.60;99.90
3756;DHT22;1893;52.526;13.360;2023-04-01T09:50:24;9.60;99.90
3756;DHT22;1893;52.526;13.360;2023-04-01T09:58:42;9.50;99.90
3756;DHT22;1893;52.526;13.360;2023-04-01T10:18:12;9.60;99.90
3756;DHT22;1893;52.526;13.360;2023-04-01T10:42:53;9.50;99.90
3756;DHT22;1893;52.526;13.360;2023-04-01T10:45:45;9.40;99.90
3756;DHT22;1893;52.526;13.360;2023-04-01T10:49:04;9.30;99.90
3756;DHT22;1893;52.526;13.360;2023-04-01T11:17:42;9.20;99.90
3756;DHT22;1893;52.526;13.360;2023-04-01T11:20:58;9.30;99.90
3756;DHT22;1893;52.526;13.360;2023-04-01T11:31:45;9.30;99.90
3756;DHT22;1893;52.526;13.360;2023-04-01T11:36:54;9.40;99.90
3756;DHT22;1893;52.526;13.360;2023-04-01T11:39:33;9.30;99.90
3756;DHT22;1893;52.526;13.360;2023-04-01T11:48:13;9.30;99.90
3756;DHT22;1893;52.526;13.360;2023-04-01T11:50:44;9.40;99.90
3756;DHT22;1893;52.526;13.360;2023-04-01T11:56:09;9.20;99.90
3756;DHT22;1893;52.526;13.360;2023-04-01T12:05:01;9.10;99.90
3756;DHT22;1893;52.526;13.360;2023-04-01T12:07:55;9.10;99.90
3756;DHT22;1893;52.526;13.360;2023-04-01T12:10:56;9.00;99.90
3756;DHT22;1893;52.526;13.360;2023-04-01T12:16:23;9.00;99.90
3756;DHT22;1893;52.526;13.360;2023-04-01T12:24:25;8.90;99.90
3756;DHT22;1893;52.526;13.360;2023-04-01T12:32:41;9.00;99.90
3756;DHT22;1893;52.526;13.360;2023-04-01T12:35:18;8.90;99.90
3756;DHT22;1893;52.526;13.360;2023-04-01T12:48:38;8.90;99.90
3756;DHT22;1893;52.526;13.360;2023-04-01T12:51:29;8.80;99.90
3756;DHT22;1893;52.526;13.360;2023-04-01T12:57:19;8.70;99.90
3756;DHT22;1893;52.526;13.360;2023-04-01T13:05:22;8.70;99.90
3756;DHT22;1893;52.526;13.360;2023-04-01T13:08:04;8.60;99.90
3756;DHT22;1893;52.526;13.360;2023-04-01T13:16:33;8.40;99.90
3756;DHT22;1893;52.526;13.360;2023-04-01T13:19:25;8.40;99.90
3756;DHT22;1893;52.526;13.360;2023-04-01T13:22:15;8.50;99.90
3756;DHT22;1893;52.526;13.360;2023-04-01T13:27:45;8.50;99.90
3756;DHT22;1893;52.526;13.360;2023-04-01T13:38:48;8.20;99.90
3756;DHT22;1893;52.526;13.360;2023-04-01T13:41:45;8.30;99.90
3756;DHT22;1893;52.526;13.360;2023-04-01T13:44:30;8.30;99.90
3756;DHT22;1893;52.526;13.360;2023-04-01T13:55:46;8.30;99.90
3756;DHT22;1893;52.526;13.360;2023-04-01T13:58:23;8.40;99.90
3756;DHT22;1893;52.526;13.360;2023-04-01T14:06:51;8.40;99.90
3756;DHT22;1893;52.526;13.360;2023-04-01T14:29:59;8.10;99.90
3756;DHT22;1893;52.526;13.360;2023-04-01T14:32:39;8.00;99.90
3756;DHT22;1893;52.526;13.360;2023-04-01T14:41:05;7.80;99.90
3756;DHT22;1893;52.526;13.360;2023-04-01T14:47:04;7.80;99.90
3756;DHT22;1893;52.526;13.360;2023-04-01T14:49:47;7.80;99.90
3756;DHT22;1893;52.526;13.360;2023-04-01T14:52:33;7.80;99.90
3756;DHT22;1893;52.526;13.360;2023-04-01T14:55:02;7.80;99.90
3756;DHT22;1893;52.526;13.360;2023-04-01T14:57:36;7.90;99.90
3756;DHT22;1893;52.526;13.360;2023-04-01T15:00:16;7.80;99.90
3756;DHT22;1893;52.526;13.360;2023-04-01T15:08:27;7.80;99.90
3756;DHT22;1893;52.526;13.360;2023-04-01T15:14:13;7.80;99.90
3756;DHT22;1893;52.526;13.360;2023-04-01T15:17:23;7.60;99.90
3756;DHT22;1893;52.526;13.360;2023-04-01T15:31:29;7.40;99.90
3756;DHT22;1893;52.526;13.360;2023-04-01T15:52:43;7.30;99.90
3756;DHT22;1893;52.526;13.360;2023-04-01T15:55:45;7.30;99.90
3756;DHT22;1893;52.526;13.360;2023-04-01T15:58:34;7.40;99.90
3756;DHT22;1893;52.526;13.360;2023-04-01T16:22:38;7.20;99.90
3756;DHT22;1893;52.526;13.360;2023-04-01T16:30:44;7.00;99.90
3756;DHT22;1893;52.526;13.360;2023-04-01T16:36:04;6.90;99.90
3756;DHT22;1893;52.526;13.360;2023-04-01T16:38:39;6.90;99.90
3756;DHT22;1893;52.526;13.360;2023-04-01T16:41:19;6.80;99.90
3756;DHT22;1893;52.526;13.360;2023-04-01T16:43:52;6.90;99.90
3756;DHT22;1893;52.526;13.360;2023-04-01T16:54:30;6.60;99.90
3756;DHT22;1893;52.526;13.360;2023-04-01T17:02:13;6.50;99.90
3756;DHT22;1893;52.526;13.360;2023-04-01T17:07:38;6.40;99.90
3756;DHT22;1893;52.526;13.360;2023-04-01T17:15:50;6.30;99.90
3756;DHT22;1893;52.526;13.360;2023-04-01T17:21:07;6.20;99.90
3756;DHT22;1893;52.526;13.360;2023-04-01T17:23:51;6.20;99.90
3756;DHT22;1893;52.526;13.360;2023-04-01T17:26:24;6.10;99.90
3756;DHT22;1893;52.526;13.360;2023-04-01T17:29:05;6.10;99.90
3756;DHT22;1893;52.526;13.360;2023-04-01T17:39:58;6.00;99.90
3756;DHT22;1893;52.526;13.360;2023-04-01T17:45:31;5.90;99.90
3756;DHT22;1893;52.526;13.360;2023-04-01T17:51:03;5.80;99.90
3756;DHT22;1893;52.526;13.360;2023-04-01T17:56:49;5.80;99.90
3756;DHT22;1893;52.526;13.360;2023-04-01T17:59:24;5.70;99.90
3756;DHT22;1893;52.526;13.360;2023-04-01T18:07:43;5.70;99.90
3756;DHT22;1893;52.526;13.360;2023-04-01T18:25:48;5.50;99.90
3756;DHT22;1893;52.526;13.360;2023-04-01T18:36:47;5.40;99.90
3756;DHT22;1893;52.526;13.360;2023-04-01T18:47:43;5.30;99.90
3756;DHT22;1893;52.526;13.360;2023-04-01T18:50:36;5.40;99.90
3756;DHT22;1893;52.526;13.360;2023-04-01T18:55:43;5.40;99.90
3756;DHT22;1893;52.526;13.360;2023-04-01T18:58:22;5.30;99.90
3756;DHT22;1893;52.526;13.360;2023-04-01T19:03:51;5.30;99.90
3756;DHT22;1893;52.526;13.360;2023-04-01T19:06:23;5.20;99.90
3756;DHT22;1893;52.526;13.360;2023-04-01T19:08:51;5.30;99.90
3756;DHT22;1893;52.526;13.360;2023-04-01T19:27:11;5.10;99.90
3756;DHT22;1893;52.526;13.360;2023-04-01T19:36:29;4.90;99.90
3756;DHT22;1893;52.526;13.360;2023-04-01T19:44:03;4.90;99.90
3756;DHT22;1893;52.526;13.360;2023-04-01T19:46:49;4.80;99.90
3756;DHT22;1893;52.526;13.360;2023-04-01T19:49:36;4.80;99.90
3756;DHT22;1893;52.526;13.360;2023-04-01T19:52:18;4.80;99.90
3756;DHT22;1893;52.526;13.360;2023-04-01T20:00:18;4.80;99.90
3756;DHT22;1893;52.526;13.360;2023-04-01T20:05:38;4.90;99.90
3756;DHT22;1893;52.526;13.360;2023-04-01T20:08:48;4.80;99.90
3756;DHT22;1893;52.526;13.360;2023-04-01T20:17:38;4.80;99.90
3756;DHT22;1893;52.526;13.360;2023-04-01T20:19:45;4.60;99.90
3756;DHT22;1893;52.526;13.360;2023-04-01T20:24:49;4.70;99.90
3756;DHT22;1893;52.526;13.360;2023-04-01T20:27:17;4.60;99.90
3756;DHT22;1893;52.526;13.360;2023-04-01T20:30:08;4.60;99.90
3756;DHT22;1893;52.526;13.360;2023-04-01T20:33:10;4.50;99.90
3756;DHT22;1893;52.526;13.360;2023-04-01T20:36:33;4.50;99.90
3756;DHT22;1893;52.526;13.360;2023-04-01T20:44:13;4.40;99.90
3756;DHT22;1893;52.526;13.360;2023-04-01T20:49:33;4.40;99.90
3756;DHT22;1893;52.526;13.360;2023-04-01T20:52:26;4.50;99.90
3756;DHT22;1893;52.526;13.360;2023-04-01T20:57:51;4.30;99.90
3756;DHT22;1893;52.526;13.360;2023-04-01T21:08:45;4.30;99.90
3756;DHT22;1893;52.526;13.360;2023-04-01T21:14:33;4.30;99.90
3756;DHT22;1893;52.526;13.360;2023-04-01T21:19:54;4.40;99.90
3756;DHT22;1893;52.526;13.360;2023-04-01T21:22:39;4.30;99.90
3756;DHT22;1893;52.526;13.360;2023-04-01T21:31:05;4.30;99.90
3756;DHT22;1893;52.526;13.360;2023-04-01T21:33:54;4.20;99.90
3756;DHT22;1893;52.526;13.360;2023-04-01T21:50:35;4.20;99.90
3756;DHT22;1893;52.526;13.360;2023-04-01T22:07:36;4.10;99.90
3756;DHT22;1893;52.526;13.360;2023-04-01T22:10:26;4.00;99.90
3756;DHT22;1893;52.526;13.360;2023-04-01T22:13:23;4.00;99.90
3756;DHT22;1893;52.526;13.360;2023-04-01T22:27:14;4.00;99.90
3756;DHT22;1893;52.526;13.360;2023-04-01T22:32:25;3.90;99.90
3756;DHT22;1893;52.526;13.360;2023-04-01T22:41:05;3.90;99.90
3756;DHT22;1893;52.526;13.360;2023-04-01T22:43:42;3.90;99.90
3756;DHT22;1893;52.526;13.360;2023-04-01T22:49:32;3.90;99.90
3756;DHT22;1893;52.526;13.360;2023-04-01T22:52:09;3.90;99.90
3756;DHT22;1893;52.526;13.360;2023-04-01T22:54:43;4.00;99.90
3756;DHT22;1893;52.526;13.360;2023-04-01T23:00:00;3.90;99.90
3756;DHT22;1893;52.526;13.360;2023-04-01T23:03:21;3.90;99.90
3756;DHT22;1893;52.526;13.360;2023-04-01T23:05:22;3.90;99.90
3756;DHT22;1893;52.526;13.360;2023-04-01T23:10:47;3.90;99.90
3756;DHT22;1893;52.526;13.360;2023-04-01T23:13:36;3.90;99.90
3756;DHT22;1893;52.526;13.360;2023-04-01T23:16:06;4.00;99.90
3756;DHT22;1893;52.526;13.360;2023-04-01T23:21:22;3.90;99.90
3756;DHT22;1893;52.526;13.360;2023-04-01T23:24:50;3.90;99.90
3756;DHT22;1893;52.526;13.360;2023-04-01T23:26:59;3.90;99.90
3756;DHT22;1893;52.526;13.360;2023-04-01T23:29:25;3.90;99.90
3756;DHT22;1893;52.526;13.360;2023-04-01T23:32:05;3.90;99.90
3756;DHT22;1893;52.526;13.360;2023-04-01T23:34:38;3.90;99.90
3756;DHT22;1893;52.526;13.360;2023-04-01T23:37:10;3.80;99.90
3756;DHT22;1893;52.526;13.360;2023-04-01T23:39:38;3.80;99.90
3756;DHT22;1893;52.526;13.360;2023-04-01T23:42:11;3.90;99.90
3756;DHT22;1893;52.526;13.360;2023-04-01T23:44:37;3.80;99.90
3756;DHT22;1893;52.526;13.360;2023-04-01T23:47:05;3.90;99.90
3756;DHT22;1893;52.526;13.360;2023-04-01T23:49:41;3.90;99.90
3756;DHT22;1893;52.526;13.360;2023-04-01T23:52:28;3.90;99.90
3756;DHT22;1893;52.526;13.360;2023-04-01T23:54:58;3.90;99.90
3756;DHT22;1893;52.526;13.360;2023-04-01T23:57:30;3.90;99.90
